createdAt,value
2018-03-27T00:01:00.454Z,21.90
2018-03-27T00:03:29.675Z,20.33
2018-03-27T00:08:34.004Z,20.60
2018-03-27T00:11:04.915Z,17.57
2018-03-27T00:13:35.035Z,19.10
2018-03-27T00:16:04.419Z,18.07
2018-03-27T00:18:33.739Z,20.47
2018-03-27T00:21:03.041Z,19.17
2018-03-27T00:23:32.357Z,20.40
2018-03-27T00:26:01.488Z,19.70
2018-03-27T00:28:44.594Z,19.07
2018-03-27T00:31:31.279Z,18.37
2018-03-27T00:34:18.952Z,20.10
2018-03-27T00:37:05.644Z,19.73
2018-03-27T00:45:45.736Z,20.70
2018-03-27T00:48:15.526Z,20.33
2018-03-27T00:50:44.323Z,20.70
2018-03-27T00:53:13.660Z,20.07
2018-03-27T00:55:42.810Z,19.93
2018-03-27T00:58:12.260Z,18.00
2018-03-27T01:00:41.503Z,22.37
2018-03-27T01:03:10.645Z,20.83
2018-03-27T01:05:39.993Z,20.47
2018-03-27T01:08:10.000Z,21.93
2018-03-27T01:10:39.371Z,22.00
2018-03-27T01:13:08.772Z,20.43
2018-03-27T01:15:38.410Z,21.83
2018-03-27T01:18:07.639Z,20.63
2018-03-27T01:20:37.910Z,21.20
2018-03-27T01:23:07.191Z,21.87
2018-03-27T01:25:36.385Z,20.87
2018-03-27T01:28:06.532Z,18.00
2018-03-27T01:30:36.574Z,19.77
2018-03-27T01:33:05.618Z,16.93
2018-03-27T01:35:34.919Z,17.50
2018-03-27T01:38:04.118Z,18.83
2018-03-27T01:40:33.215Z,17.83
2018-03-27T01:43:02.313Z,18.80
2018-03-27T01:45:31.773Z,19.37
2018-03-27T01:48:00.748Z,19.40
2018-03-27T01:50:29.689Z,19.30
2018-03-27T01:52:59.772Z,19.00
2018-03-27T01:55:28.956Z,17.73
2018-03-27T01:57:58.936Z,18.80
2018-03-27T02:00:28.138Z,16.60
2018-03-27T02:02:57.131Z,18.00
2018-03-27T02:05:26.565Z,16.23
2018-03-27T02:07:58.316Z,16.73
2018-03-27T02:10:28.412Z,17.20
2018-03-27T02:13:04.785Z,16.47
2018-03-27T02:15:39.095Z,17.53
2018-03-27T02:18:13.626Z,16.07
2018-03-27T02:20:48.447Z,16.97
2018-03-27T02:23:19.988Z,17.00
2018-03-27T02:25:49.044Z,16.63
2018-03-27T02:28:18.020Z,16.70
2018-03-27T02:30:48.812Z,15.47
2018-03-27T02:33:17.822Z,14.77
2018-03-27T02:35:47.021Z,14.03
2018-03-27T02:38:16.484Z,13.60
2018-03-27T02:40:45.572Z,12.90
2018-03-27T02:43:14.978Z,14.30
2018-03-27T02:45:49.250Z,13.90
2018-03-27T02:48:18.293Z,14.00
2018-03-27T02:50:47.585Z,13.30
2018-03-27T02:53:16.679Z,13.53
2018-03-27T02:55:45.983Z,13.77
2018-03-27T02:58:15.376Z,12.87
2018-03-27T03:00:45.416Z,11.60
2018-03-27T03:03:14.867Z,12.50
2018-03-27T03:05:44.063Z,13.03
2018-03-27T03:08:14.084Z,12.63
2018-03-27T03:10:43.637Z,12.20
2018-03-27T03:13:12.690Z,13.07
2018-03-27T03:15:42.578Z,11.43
2018-03-27T03:18:11.695Z,12.90
2018-03-27T03:20:40.896Z,12.90
2018-03-27T03:23:11.050Z,13.20
2018-03-27T03:25:40.152Z,13.97
2018-03-27T03:28:09.659Z,12.87
2018-03-27T03:33:14.152Z,13.87
2018-03-27T03:35:44.133Z,12.37
2018-03-27T03:38:15.353Z,14.80
2018-03-27T03:40:44.553Z,15.87
2018-03-27T03:43:13.638Z,14.40
2018-03-27T03:45:43.628Z,13.17
2018-03-27T03:48:13.236Z,13.90
2018-03-27T03:50:42.790Z,14.93
2018-03-27T03:53:11.770Z,12.83
2018-03-27T03:55:40.934Z,14.63
2018-03-27T03:58:10.984Z,13.27
2018-03-27T04:00:40.288Z,14.10
2018-03-27T04:03:09.395Z,14.50
2018-03-27T04:05:39.375Z,13.63
2018-03-27T04:08:08.675Z,14.70
2018-03-27T04:10:37.806Z,15.67
2018-03-27T04:13:08.606Z,16.07
2018-03-27T04:15:37.991Z,15.07
2018-03-27T04:18:07.308Z,14.70
2018-03-27T04:20:36.513Z,15.30
2018-03-27T04:23:05.765Z,17.00
2018-03-27T04:25:35.297Z,16.97
2018-03-27T04:28:04.609Z,17.90
2018-03-27T04:30:34.574Z,17.23
2018-03-27T04:33:03.761Z,18.17
2018-03-27T04:35:32.833Z,19.47
2018-03-27T04:38:02.022Z,17.47
2018-03-27T04:40:32.486Z,18.07
2018-03-27T04:43:01.453Z,17.53
2018-03-27T04:45:31.089Z,16.50
2018-03-27T04:48:00.371Z,20.90
2018-03-27T04:50:29.468Z,19.33
2018-03-27T04:55:35.477Z,20.70
2018-03-27T04:58:04.554Z,20.33
2018-03-27T05:00:33.967Z,19.50
2018-03-27T05:03:03.267Z,29.73
2018-03-27T05:05:32.577Z,25.20
2018-03-27T05:08:01.733Z,21.60
2018-03-27T05:10:30.721Z,19.97
2018-03-27T05:12:59.955Z,20.13
2018-03-27T05:15:31.854Z,21.60
2018-03-27T05:18:00.914Z,20.57
2018-03-27T05:20:30.089Z,19.67
2018-03-27T05:22:59.305Z,21.13
2018-03-27T05:25:28.591Z,21.20
2018-03-27T05:27:58.573Z,21.50
2018-03-27T05:30:29.625Z,23.70
2018-03-27T05:32:59.720Z,23.43
2018-03-27T05:35:28.850Z,21.40
2018-03-27T05:37:59.159Z,21.10
2018-03-27T05:40:28.628Z,23.53
2018-03-27T05:42:57.938Z,23.37
2018-03-27T05:45:28.544Z,24.00
2018-03-27T05:47:57.787Z,25.10
2018-03-27T05:50:26.946Z,24.90
2018-03-27T05:52:57.006Z,21.97
2018-03-27T05:55:26.304Z,21.67
2018-03-27T05:57:55.682Z,21.83
2018-03-27T06:00:25.086Z,22.23
2018-03-27T06:02:54.067Z,21.97
2018-03-27T06:05:24.257Z,22.00
2018-03-27T06:07:53.736Z,20.33
2018-03-27T06:10:22.838Z,18.07
2018-03-27T06:12:52.772Z,18.37
2018-03-27T06:15:22.239Z,17.00
2018-03-27T06:17:51.653Z,16.67
2018-03-27T06:20:21.229Z,16.20
2018-03-27T06:22:51.822Z,16.27
2018-03-27T06:25:21.586Z,18.57
2018-03-27T06:27:50.780Z,16.20
2018-03-27T06:30:21.209Z,19.13
2018-03-27T06:32:50.596Z,15.70
2018-03-27T06:35:19.797Z,14.73
2018-03-27T06:37:50.726Z,15.83
2018-03-27T06:40:20.135Z,13.37
2018-03-27T06:42:49.509Z,12.90
2018-03-27T06:47:54.255Z,11.47
2018-03-27T06:50:23.563Z,12.17
2018-03-27T06:52:52.935Z,12.47
2018-03-27T06:55:22.258Z,15.50
2018-03-27T06:57:51.304Z,13.97
2018-03-27T07:00:26.698Z,13.70
2018-03-27T07:02:55.929Z,14.40
2018-03-27T07:05:25.013Z,14.23
2018-03-27T07:07:54.871Z,16.00
2018-03-27T07:10:24.118Z,15.27
2018-03-27T07:12:53.512Z,10.10
2018-03-27T07:15:24.528Z,12.87
2018-03-27T07:17:53.555Z,10.83
2018-03-27T07:20:22.658Z,12.77
2018-03-27T07:22:51.944Z,9.97
2018-03-27T07:25:21.354Z,8.10
2018-03-27T07:27:50.443Z,7.03
2018-03-27T07:30:20.037Z,6.40
2018-03-27T07:32:49.352Z,6.47
2018-03-27T07:35:18.527Z,6.90
2018-03-27T07:37:49.786Z,6.90
2018-03-27T07:40:18.832Z,6.00
2018-03-27T07:42:48.302Z,7.00
2018-03-27T07:45:17.714Z,7.93
2018-03-27T07:47:46.921Z,6.53
2018-03-27T07:50:16.102Z,7.50
2018-03-27T07:52:46.283Z,6.77
2018-03-27T07:55:15.661Z,6.93
2018-03-27T07:57:44.625Z,6.23
2018-03-27T08:00:13.958Z,6.30
2018-03-27T08:02:43.219Z,7.07
2018-03-27T08:05:12.419Z,6.97
2018-03-27T08:07:42.465Z,7.60
2018-03-27T08:10:11.782Z,9.80
2018-03-27T08:12:40.739Z,13.30
2018-03-27T08:15:10.953Z,11.70
2018-03-27T08:17:40.279Z,10.57
2018-03-27T08:20:09.592Z,10.03
2018-03-27T08:22:40.239Z,11.53
2018-03-27T08:25:09.593Z,10.10
2018-03-27T08:27:38.709Z,9.30
2018-03-27T08:30:12.464Z,7.07
2018-03-27T08:32:41.801Z,8.13
2018-03-27T08:35:11.003Z,8.07
2018-03-27T08:37:41.728Z,8.67
2018-03-27T08:40:10.748Z,11.10
2018-03-27T08:42:39.618Z,7.97
2018-03-27T08:45:08.847Z,8.40
2018-03-27T08:47:37.975Z,8.70
2018-03-27T08:50:07.773Z,6.67
2018-03-27T08:52:36.999Z,7.40
2018-03-27T08:55:06.921Z,7.60
2018-03-27T08:57:36.176Z,6.53
2018-03-27T09:02:39.484Z,6.43
2018-03-27T09:05:09.946Z,8.33
2018-03-27T09:07:39.331Z,7.43
2018-03-27T09:10:08.536Z,7.93
2018-03-27T09:12:37.757Z,7.10
2018-03-27T09:15:07.138Z,6.17
2018-03-27T09:17:36.180Z,6.17
2018-03-27T09:20:05.417Z,5.60
2018-03-27T09:22:34.521Z,7.03
2018-03-27T09:25:03.494Z,7.10
2018-03-27T09:27:32.906Z,5.77
2018-03-27T09:32:36.864Z,7.57
2018-03-27T09:35:05.920Z,6.80
2018-03-27T09:37:38.006Z,7.07
2018-03-27T09:40:07.187Z,6.60
2018-03-27T09:42:36.391Z,6.43
2018-03-27T09:45:06.477Z,6.27
2018-03-27T09:47:35.605Z,5.70
2018-03-27T09:50:04.799Z,5.77
2018-03-27T09:52:34.275Z,6.10
2018-03-27T09:55:03.324Z,5.80
2018-03-27T09:57:34.758Z,4.53
2018-03-27T10:00:04.338Z,5.53
2018-03-27T10:02:33.694Z,6.20
2018-03-27T10:05:02.979Z,5.40
2018-03-27T10:07:32.814Z,7.47
2018-03-27T10:10:03.409Z,6.60
2018-03-27T10:12:32.862Z,7.97
2018-03-27T10:15:02.111Z,7.57
2018-03-27T10:17:31.353Z,11.10
2018-03-27T10:20:00.452Z,10.63
2018-03-27T10:22:29.653Z,10.57
2018-03-27T10:24:58.943Z,10.13
2018-03-27T10:27:28.458Z,13.07
2018-03-27T10:29:59.356Z,11.00
2018-03-27T10:32:28.591Z,12.27
2018-03-27T10:34:57.786Z,10.90
2018-03-27T10:37:27.088Z,11.10
2018-03-27T10:39:57.668Z,11.67
2018-03-27T10:42:26.825Z,10.40
2018-03-27T10:47:30.713Z,14.10
2018-03-27T10:49:59.826Z,12.93
2018-03-27T10:52:28.999Z,14.13
2018-03-27T10:54:58.212Z,13.67
2018-03-27T10:57:27.410Z,14.10
2018-03-27T10:59:57.362Z,13.60
2018-03-27T11:02:26.719Z,15.50
2018-03-27T11:04:56.123Z,14.47
2018-03-27T11:07:25.321Z,12.90
2018-03-27T11:09:54.643Z,15.20
2018-03-27T11:12:24.030Z,16.20
2018-03-27T11:14:54.739Z,15.87
2018-03-27T11:17:23.919Z,17.83
2018-03-27T11:19:53.302Z,18.20
2018-03-27T11:22:24.213Z,16.30
2018-03-27T11:24:53.334Z,16.77
2018-03-27T11:27:22.603Z,26.80
2018-03-27T11:29:54.256Z,19.27
2018-03-27T11:32:23.489Z,16.60
2018-03-27T11:34:53.337Z,16.60
2018-03-27T11:37:22.757Z,16.90
2018-03-27T11:39:52.053Z,14.40
2018-03-27T11:42:21.565Z,16.67
2018-03-27T11:44:50.755Z,14.90
2018-03-27T11:47:20.060Z,14.23
2018-03-27T11:49:49.474Z,14.33
2018-03-27T11:54:53.489Z,17.13
2018-03-27T11:57:22.836Z,15.23
2018-03-27T11:59:52.164Z,15.77
2018-03-27T12:02:21.406Z,11.83
2018-03-27T12:04:50.592Z,17.53
2018-03-27T12:07:21.468Z,15.33
2018-03-27T12:09:50.677Z,14.67
2018-03-27T12:12:19.867Z,16.27
2018-03-27T12:14:49.195Z,15.17
2018-03-27T12:17:18.229Z,16.07
2018-03-27T12:19:47.251Z,17.33
2018-03-27T12:22:17.237Z,15.97
2018-03-27T12:24:46.401Z,17.57
2018-03-27T12:27:15.443Z,15.50
2018-03-27T12:29:44.837Z,16.50
2018-03-27T12:32:14.011Z,16.53
2018-03-27T12:34:43.059Z,15.27
2018-03-27T12:37:12.940Z,16.57
2018-03-27T12:39:42.423Z,19.57
2018-03-27T12:42:11.657Z,18.80
2018-03-27T12:44:41.619Z,14.40
2018-03-27T12:47:10.780Z,16.70
2018-03-27T12:49:39.143Z,14.23
2018-03-27T12:52:08.110Z,15.10
2018-03-27T12:54:38.767Z,14.93
2018-03-27T12:57:07.962Z,18.30
2018-03-27T12:59:37.167Z,18.93
2018-03-27T13:02:06.217Z,15.63
2018-03-27T13:04:36.364Z,15.13
2018-03-27T13:07:06.142Z,15.50
2018-03-27T13:09:35.219Z,17.00
2018-03-27T13:12:05.448Z,16.23
2018-03-27T13:14:35.511Z,17.60
2018-03-27T13:17:04.563Z,18.13
2018-03-27T13:19:33.726Z,18.73
2018-03-27T13:24:36.712Z,18.00
2018-03-27T13:27:05.938Z,19.57
2018-03-27T13:29:36.001Z,16.83
2018-03-27T13:32:05.178Z,17.30
2018-03-27T13:34:34.088Z,20.07
2018-03-27T13:37:05.797Z,19.57
2018-03-27T13:39:34.934Z,18.60
2018-03-27T13:42:04.024Z,18.57
2018-03-27T13:44:33.294Z,19.77
2018-03-27T13:47:02.332Z,18.67
2018-03-27T13:49:31.789Z,20.03
2018-03-27T13:52:00.985Z,20.37
2018-03-27T13:54:30.290Z,21.10
2018-03-27T13:56:59.592Z,20.80
2018-03-27T13:59:28.892Z,22.20
2018-03-27T14:01:57.975Z,21.73
2018-03-27T14:04:26.980Z,22.47
2018-03-27T14:06:56.077Z,21.93
2018-03-27T14:09:25.347Z,21.83
2018-03-27T14:11:54.369Z,18.70
2018-03-27T14:14:23.610Z,16.90
2018-03-27T14:16:52.593Z,19.97
2018-03-27T14:19:21.708Z,20.27
2018-03-27T14:21:51.578Z,21.23
2018-03-27T14:24:21.603Z,21.70
2018-03-27T14:26:50.696Z,21.37
2018-03-27T14:29:21.883Z,20.53
2018-03-27T14:31:51.364Z,20.47
2018-03-27T14:34:21.090Z,22.00
2018-03-27T14:36:51.170Z,21.20
2018-03-27T14:39:20.522Z,20.10
2018-03-27T14:41:50.022Z,20.43
2018-03-27T14:44:19.939Z,21.37
2018-03-27T14:46:50.036Z,23.00
2018-03-27T14:49:19.369Z,24.43
2018-03-27T14:51:49.635Z,24.33
2018-03-27T14:54:18.865Z,25.57
2018-03-27T14:56:48.172Z,24.60
2018-03-27T14:59:19.721Z,23.00
2018-03-27T15:01:48.934Z,28.17
2018-03-27T15:04:19.949Z,24.10
2018-03-27T15:06:50.891Z,22.03
2018-03-27T15:09:20.874Z,20.10
2018-03-27T15:11:50.335Z,23.00
2018-03-27T15:14:21.472Z,21.57
2018-03-27T15:16:51.704Z,22.67
2018-03-27T15:19:20.793Z,21.97
2018-03-27T15:21:50.840Z,23.50
2018-03-27T15:24:21.949Z,24.57
2018-03-27T15:26:51.061Z,20.80
2018-03-27T15:29:23.024Z,20.97
2018-03-27T15:31:52.993Z,21.10
2018-03-27T15:34:22.544Z,20.60
2018-03-27T15:36:53.652Z,18.87
2018-03-27T15:39:22.899Z,23.93
2018-03-27T15:41:52.324Z,23.40
2018-03-27T15:44:23.078Z,24.37
2018-03-27T15:46:52.321Z,25.47
2018-03-27T15:49:23.483Z,21.50
2018-03-27T15:51:52.741Z,20.40
2018-03-27T15:54:24.080Z,20.87
2018-03-27T15:56:53.822Z,20.70
2018-03-27T15:59:24.013Z,22.27
2018-03-27T16:01:56.833Z,20.63
2018-03-27T16:04:27.310Z,18.07
2018-03-27T16:06:58.336Z,20.30
2018-03-27T16:09:27.717Z,23.30
2018-03-27T16:11:57.069Z,20.83
2018-03-27T16:17:02.575Z,25.80
2018-03-27T16:19:31.936Z,30.60
2018-03-27T16:22:01.916Z,30.37
2018-03-27T16:24:32.806Z,27.23
2018-03-27T16:27:03.194Z,21.80
2018-03-27T16:29:32.581Z,23.00
2018-03-27T16:32:01.882Z,26.97
2018-03-27T16:34:31.479Z,36.80
2018-03-27T16:37:01.521Z,36.83
2018-03-27T16:39:31.725Z,43.60
2018-03-27T16:44:36.905Z,44.83
2018-03-27T16:47:06.160Z,48.47
2018-03-27T16:49:35.561Z,55.93
2018-03-27T16:52:04.743Z,57.60
2018-03-27T16:54:33.709Z,55.57
2018-03-27T16:57:04.068Z,49.13
2018-03-27T16:59:33.355Z,40.57
2018-03-27T17:02:03.328Z,33.73
2018-03-27T17:04:33.506Z,31.40
2018-03-27T17:07:02.916Z,26.97
2018-03-27T17:09:35.087Z,27.67
2018-03-27T17:12:04.395Z,27.70
2018-03-27T17:14:33.978Z,23.73
2018-03-27T17:19:38.651Z,25.97
2018-03-27T17:22:11.468Z,24.17
2018-03-27T17:24:41.771Z,23.47
2018-03-27T17:27:13.438Z,24.67
2018-03-27T17:29:42.717Z,29.20
2018-03-27T17:32:12.308Z,33.13
2018-03-27T17:34:42.314Z,35.40
2018-03-27T17:37:14.408Z,27.60
2018-03-27T17:39:43.555Z,31.37
2018-03-27T17:42:12.764Z,29.27
2018-03-27T17:44:42.310Z,23.03
2018-03-27T17:47:13.006Z,32.43
2018-03-27T17:49:43.271Z,40.73
2018-03-27T17:52:13.920Z,39.57
2018-03-27T17:54:44.609Z,46.47
2018-03-27T17:57:14.225Z,44.97
2018-03-27T17:59:44.275Z,46.27
2018-03-27T18:02:14.346Z,33.63
2018-03-27T18:04:43.679Z,31.00
2018-03-27T18:07:14.513Z,33.60
2018-03-27T18:09:44.565Z,36.50
2018-03-27T18:12:13.907Z,42.93
2018-03-27T18:14:46.062Z,33.90
2018-03-27T18:17:17.988Z,26.83
2018-03-27T18:19:49.113Z,24.80
2018-03-27T18:22:20.338Z,24.40
2018-03-27T18:24:50.560Z,23.97
2018-03-27T18:27:20.569Z,28.90
2018-03-27T18:29:50.539Z,35.47
2018-03-27T18:32:20.323Z,36.17
2018-03-27T18:34:50.359Z,38.70
2018-03-27T18:37:19.843Z,39.87
2018-03-27T18:39:54.971Z,43.40
2018-03-27T18:42:24.676Z,37.87
2018-03-27T18:44:53.861Z,29.10
2018-03-27T18:47:24.667Z,28.77
2018-03-27T18:49:54.840Z,37.77
2018-03-27T18:52:24.024Z,39.33
2018-03-27T18:54:54.213Z,35.33
2018-03-27T18:57:24.276Z,37.73
2018-03-27T18:59:53.306Z,37.80
2018-03-27T19:02:22.886Z,46.30
2018-03-27T19:04:52.358Z,40.40
2018-03-27T19:07:21.580Z,39.00
2018-03-27T19:09:52.227Z,37.70
2018-03-27T19:12:22.165Z,38.93
2018-03-27T19:14:51.262Z,36.10
2018-03-27T19:17:20.345Z,32.60
2018-03-27T19:19:49.764Z,35.53
2018-03-27T19:22:21.144Z,33.33
2018-03-27T19:24:50.275Z,39.93
2018-03-27T19:27:19.275Z,38.30
2018-03-27T19:29:48.232Z,37.77
2018-03-27T19:32:18.174Z,41.70
2018-03-27T19:34:48.035Z,38.30
2018-03-27T19:37:18.008Z,39.43
2018-03-27T19:39:47.108Z,42.03
2018-03-27T19:42:16.199Z,39.13
2018-03-27T19:47:21.872Z,40.50
2018-03-27T19:49:50.763Z,40.40
2018-03-27T19:52:21.491Z,38.80
2018-03-27T19:54:50.779Z,36.83
2018-03-27T19:57:19.786Z,37.27
2018-03-27T19:59:49.804Z,39.40
2018-03-27T20:02:19.149Z,42.30
2018-03-27T20:04:48.373Z,42.20
2018-03-27T20:09:52.510Z,43.00
2018-03-27T20:12:21.481Z,44.30
2018-03-27T20:17:26.548Z,42.50
2018-03-27T20:19:55.475Z,44.33
2018-03-27T20:22:26.146Z,40.90
2018-03-27T20:24:56.227Z,38.80
2018-03-27T20:27:26.150Z,38.80
2018-03-27T20:29:55.273Z,39.30
2018-03-27T20:32:24.475Z,36.47
2018-03-27T20:34:53.572Z,34.60
2018-03-27T20:37:22.539Z,31.67
2018-03-27T20:39:52.396Z,33.30
2018-03-27T20:42:21.685Z,33.80
2018-03-27T20:44:50.702Z,35.27
2018-03-27T20:47:20.528Z,35.70
2018-03-27T20:49:49.658Z,35.07
2018-03-27T20:52:19.155Z,36.60
2018-03-27T20:54:49.091Z,36.90
2018-03-27T20:57:18.308Z,38.70
2018-03-27T20:59:47.616Z,38.77
2018-03-27T21:02:16.823Z,41.20
2018-03-27T21:04:45.936Z,38.40
2018-03-27T21:07:15.305Z,38.33
2018-03-27T21:09:45.185Z,34.27
2018-03-27T21:12:15.280Z,29.10
2018-03-27T21:17:22.378Z,23.20
2018-03-27T21:19:51.503Z,24.13
2018-03-27T21:24:59.886Z,18.90
2018-03-27T21:27:29.683Z,18.23
2018-03-27T21:29:59.873Z,17.30
2018-03-27T21:32:29.512Z,15.70
2018-03-27T21:34:58.801Z,17.07
2018-03-27T21:37:29.589Z,15.97
2018-03-27T21:39:59.227Z,16.40
2018-03-27T21:42:28.256Z,16.20
2018-03-27T21:44:58.484Z,17.23
2018-03-27T21:47:27.867Z,19.10
2018-03-27T21:49:56.743Z,20.00
2018-03-27T21:52:29.154Z,17.23
2018-03-27T21:54:58.342Z,20.70
2018-03-27T21:57:27.311Z,19.70
2018-03-27T22:00:00.070Z,19.87
2018-03-27T22:02:29.128Z,17.20
2018-03-27T22:05:18.763Z,17.80
2018-03-27T22:07:47.760Z,17.10
2018-03-27T22:10:16.886Z,17.07
2018-03-27T22:12:46.731Z,16.93
2018-03-27T22:15:15.764Z,17.23
2018-03-27T22:17:46.338Z,18.67
2018-03-27T22:20:15.424Z,16.53
2018-03-27T22:22:44.494Z,15.80
2018-03-27T22:25:13.591Z,18.13
2018-03-27T22:27:43.749Z,17.63
2018-03-27T22:30:14.935Z,17.03
2018-03-27T22:32:44.043Z,17.60
2018-03-27T22:35:14.033Z,17.03
2018-03-27T22:37:43.263Z,18.67
2018-03-27T22:40:13.275Z,17.93
2018-03-27T22:42:42.272Z,18.50
2018-03-27T22:45:13.903Z,17.23
2018-03-27T22:47:44.659Z,17.77
2018-03-27T22:50:13.698Z,16.87
2018-03-27T22:52:43.577Z,18.73
2018-03-27T22:55:14.188Z,18.10
2018-03-27T22:57:43.158Z,19.70
2018-03-27T23:00:12.454Z,18.67
2018-03-27T23:02:42.206Z,20.80
2018-03-27T23:05:12.841Z,22.13
2018-03-27T23:07:41.836Z,21.17
2018-03-27T23:10:13.248Z,22.37
2018-03-27T23:12:42.771Z,24.20
2018-03-27T23:15:12.737Z,22.80
2018-03-27T23:17:41.867Z,22.80
2018-03-27T23:20:11.921Z,22.30
2018-03-27T23:22:40.960Z,19.70
2018-03-27T23:25:11.859Z,22.50
2018-03-27T23:27:41.104Z,22.50
2018-03-27T23:30:10.150Z,22.60
2018-03-27T23:32:40.172Z,30.13
2018-03-27T23:35:10.303Z,30.30
2018-03-27T23:37:39.385Z,32.27
2018-03-27T23:40:08.574Z,31.93
2018-03-27T23:42:37.579Z,29.07
2018-03-27T23:45:06.572Z,26.13
2018-03-27T23:47:36.494Z,24.77
2018-03-27T23:50:06.505Z,24.83
2018-03-27T23:52:36.504Z,25.97
2018-03-27T23:55:07.567Z,26.50
2018-03-27T23:57:36.866Z,24.80
